createdAt,value
2023-04-13T00:01:16.263Z,2.50
2023-04-13T00:03:44.252Z,2.65
2023-04-13T00:06:11.371Z,2.13
2023-04-13T00:08:38.192Z,2.42
2023-04-13T00:11:05.670Z,1.40
2023-04-13T00:13:32.018Z,2.50
2023-04-13T00:16:00.640Z,2.33
2023-04-13T00:18:26.892Z,1.33
2023-04-13T00:20:53.151Z,2.17
2023-04-13T00:23:19.457Z,1.63
2023-04-13T00:25:45.774Z,2.08
2023-04-13T00:28:12.035Z,3.03
2023-04-13T00:30:38.440Z,1.42
2023-04-13T00:33:04.904Z,2.17
2023-04-13T00:35:31.961Z,1.50
2023-04-13T00:37:58.808Z,2.10
2023-04-13T00:40:25.189Z,2.72
2023-04-13T00:42:51.755Z,2.30
2023-04-13T00:45:18.422Z,2.13
2023-04-13T00:47:46.595Z,3.53
2023-04-13T00:50:13.412Z,1.40
2023-04-13T00:52:40.986Z,3.08
2023-04-13T00:55:07.622Z,2.88
2023-04-13T00:57:34.428Z,3.47
2023-04-13T01:00:09.974Z,3.90
2023-04-13T01:02:37.029Z,1.50
2023-04-13T01:05:03.949Z,2.45
2023-04-13T01:07:30.200Z,3.63
2023-04-13T01:10:01.922Z,2.50
2023-04-13T01:12:34.238Z,3.03
2023-04-13T01:15:04.976Z,2.25
2023-04-13T01:17:32.763Z,3.80
2023-04-13T01:20:01.245Z,2.58
2023-04-13T01:22:29.683Z,3.65
2023-04-13T01:25:14.781Z,7.88
2023-04-13T01:27:44.657Z,1.15
2023-04-13T01:30:11.745Z,2.70
2023-04-13T01:32:39.023Z,1.73
2023-04-13T01:35:06.889Z,1.88
2023-04-13T01:37:33.660Z,1.67
2023-04-13T01:39:59.996Z,2.63
2023-04-13T01:42:26.278Z,3.08
2023-04-13T01:44:52.570Z,4.32
2023-04-13T01:47:20.382Z,2.67
2023-04-13T01:49:52.477Z,2.85
2023-04-13T01:52:19.201Z,3.25
2023-04-13T01:54:46.889Z,3.38
2023-04-13T01:57:14.205Z,2.58
2023-04-13T01:59:40.575Z,3.13
2023-04-13T02:02:07.048Z,3.55
2023-04-13T02:04:34.049Z,2.80
2023-04-13T02:07:00.346Z,3.15
2023-04-13T02:09:29.485Z,3.47
2023-04-13T02:11:56.023Z,2.25
2023-04-13T02:14:22.273Z,3.70
2023-04-13T02:16:48.928Z,3.03
2023-04-13T02:19:15.270Z,4.25
2023-04-13T02:21:42.127Z,4.97
2023-04-13T02:24:08.875Z,4.38
2023-04-13T02:26:37.243Z,2.22
2023-04-13T02:29:03.558Z,3.05
2023-04-13T02:31:31.887Z,4.45
2023-04-13T02:33:58.712Z,3.95
2023-04-13T02:36:25.421Z,3.40
2023-04-13T02:38:53.085Z,2.88
2023-04-13T02:41:22.974Z,3.88
2023-04-13T02:43:50.587Z,4.10
2023-04-13T02:46:16.940Z,2.90
2023-04-13T02:48:43.275Z,2.28
2023-04-13T02:51:09.845Z,3.58
2023-04-13T02:53:36.250Z,3.75
2023-04-13T02:56:02.539Z,3.03
2023-04-13T02:58:31.557Z,4.13
2023-04-13T03:00:58.643Z,3.13
2023-04-13T03:03:25.089Z,2.33
2023-04-13T03:05:51.654Z,3.22
2023-04-13T03:08:18.014Z,3.42
2023-04-13T03:10:44.986Z,4.03
2023-04-13T03:13:11.526Z,4.57
2023-04-13T03:15:37.787Z,1.48
2023-04-13T03:18:04.553Z,3.35
2023-04-13T03:20:31.023Z,2.72
2023-04-13T03:22:58.681Z,2.25
2023-04-13T03:25:24.977Z,4.18
2023-04-13T03:27:51.712Z,3.47
2023-04-13T03:30:18.647Z,2.13
2023-04-13T03:32:45.039Z,3.13
2023-04-13T03:35:11.956Z,3.13
2023-04-13T03:37:42.687Z,3.22
2023-04-13T03:40:12.270Z,2.70
2023-04-13T03:42:38.576Z,3.83
2023-04-13T03:45:05.917Z,3.78
2023-04-13T03:47:32.393Z,2.15
2023-04-13T03:49:58.688Z,2.42
2023-04-13T03:52:25.254Z,3.08
2023-04-13T03:54:57.844Z,3.58
2023-04-13T03:57:24.175Z,3.33
2023-04-13T03:59:50.496Z,2.90
2023-04-13T04:02:16.937Z,2.03
2023-04-13T04:04:43.368Z,3.22
2023-04-13T04:07:09.731Z,2.35
2023-04-13T04:09:36.058Z,3.22
2023-04-13T04:12:02.370Z,2.78
2023-04-13T04:14:28.724Z,2.83
2023-04-13T04:16:55.062Z,2.03
2023-04-13T04:19:21.426Z,2.80
2023-04-13T04:21:47.771Z,2.60
2023-04-13T04:24:22.786Z,3.10
2023-04-13T04:26:55.089Z,2.65
2023-04-13T04:29:34.003Z,2.35
2023-04-13T04:32:04.343Z,1.38
2023-04-13T04:34:31.632Z,2.25
2023-04-13T04:37:03.234Z,3.13
2023-04-13T04:39:33.078Z,3.22
2023-04-13T04:42:05.557Z,2.65
2023-04-13T04:44:31.855Z,1.58
2023-04-13T04:46:59.517Z,2.45
2023-04-13T04:49:27.938Z,2.28
2023-04-13T04:51:55.111Z,3.55
2023-04-13T04:54:21.865Z,4.15
2023-04-13T04:56:48.351Z,2.97
2023-04-13T04:59:14.802Z,3.25
2023-04-13T05:01:43.174Z,3.60
2023-04-13T05:04:10.082Z,2.28
2023-04-13T05:06:36.661Z,3.00
2023-04-13T05:09:07.271Z,4.63
2023-04-13T05:11:33.836Z,2.53
2023-04-13T05:14:00.808Z,1.70
2023-04-13T05:16:30.520Z,2.85
2023-04-13T05:18:57.723Z,4.28
2023-04-13T05:21:24.316Z,2.35
2023-04-13T05:23:51.009Z,3.30
2023-04-13T05:26:17.473Z,3.55
2023-04-13T05:28:43.803Z,2.35
2023-04-13T05:31:11.212Z,3.80
2023-04-13T05:33:37.906Z,2.13
2023-04-13T05:36:04.534Z,2.83
2023-04-13T05:38:31.590Z,4.80
2023-04-13T05:41:00.919Z,1.92
2023-04-13T05:43:27.278Z,3.13
2023-04-13T05:45:53.691Z,3.75
2023-04-13T05:48:20.017Z,2.75
2023-04-13T05:50:46.598Z,5.43
2023-04-13T05:53:13.020Z,3.45
2023-04-13T05:55:40.528Z,2.10
2023-04-13T05:58:06.857Z,2.67
2023-04-13T06:00:33.226Z,2.85
2023-04-13T06:03:01.448Z,4.32
2023-04-13T06:05:29.720Z,2.20
2023-04-13T06:07:56.158Z,4.53
2023-04-13T06:10:22.961Z,2.00
2023-04-13T06:12:50.448Z,3.10
2023-04-13T06:15:17.321Z,3.63
2023-04-13T06:17:43.664Z,4.70
2023-04-13T06:20:13.060Z,1.60
2023-04-13T06:22:39.779Z,2.65
2023-04-13T06:25:06.263Z,4.22
2023-04-13T06:27:33.660Z,3.42
2023-04-13T06:29:59.971Z,3.20
2023-04-13T06:32:26.379Z,2.45
2023-04-13T06:34:52.652Z,4.10
2023-04-13T06:37:19.186Z,4.68
2023-04-13T06:39:45.525Z,2.40
2023-04-13T06:42:11.828Z,3.13
2023-04-13T06:44:38.095Z,2.50
2023-04-13T06:47:05.763Z,4.43
2023-04-13T06:49:32.725Z,3.47
2023-04-13T06:51:59.017Z,7.13
2023-04-13T06:54:25.402Z,4.60
2023-04-13T06:56:51.762Z,6.55
2023-04-13T06:59:18.151Z,4.45
2023-04-13T07:01:44.552Z,3.03
2023-04-13T07:04:14.239Z,3.95
2023-04-13T07:06:40.741Z,4.03
2023-04-13T07:09:07.160Z,4.65
2023-04-13T07:11:33.525Z,4.00
2023-04-13T07:13:59.885Z,4.55
2023-04-13T07:16:26.354Z,3.88
2023-04-13T07:18:53.308Z,4.03
2023-04-13T07:21:19.622Z,3.63
2023-04-13T07:23:45.926Z,5.90
2023-04-13T07:26:13.138Z,5.70
2023-04-13T07:28:39.485Z,3.58
2023-04-13T07:31:06.524Z,3.58
2023-04-13T07:33:33.026Z,3.45
2023-04-13T07:35:59.347Z,3.72
2023-04-13T07:38:25.821Z,4.10
2023-04-13T07:40:52.208Z,5.75
2023-04-13T07:43:20.318Z,3.33
2023-04-13T07:45:46.981Z,3.72
2023-04-13T07:48:13.345Z,4.03
2023-04-13T07:50:40.674Z,3.03
2023-04-13T07:53:07.005Z,3.00
2023-04-13T07:55:33.373Z,4.13
2023-04-13T07:57:59.867Z,3.35
2023-04-13T08:00:27.024Z,2.90
2023-04-13T08:02:54.827Z,3.78
2023-04-13T08:05:21.371Z,4.65
2023-04-13T08:07:49.035Z,4.28
2023-04-13T08:10:15.330Z,3.38
2023-04-13T08:12:41.669Z,2.63
2023-04-13T08:15:08.298Z,4.25
2023-04-13T08:17:34.640Z,2.97
2023-04-13T08:20:00.983Z,4.30
2023-04-13T08:22:27.306Z,3.67
2023-04-13T08:24:54.649Z,3.17
2023-04-13T08:27:21.043Z,4.13
2023-04-13T08:29:47.295Z,3.55
2023-04-13T08:32:13.741Z,5.10
2023-04-13T08:34:41.828Z,4.95
2023-04-13T08:37:09.561Z,3.33
2023-04-13T08:39:36.321Z,2.92
2023-04-13T08:42:02.613Z,4.60
2023-04-13T08:44:29.133Z,4.67
2023-04-13T08:46:56.014Z,4.53
2023-04-13T08:49:22.353Z,3.10
2023-04-13T08:51:49.006Z,4.18
2023-04-13T08:54:16.431Z,6.00
2023-04-13T08:56:46.622Z,5.07
2023-04-13T08:59:15.194Z,3.83
2023-04-13T09:01:42.655Z,3.58
2023-04-13T09:04:10.608Z,3.47
2023-04-13T09:06:41.442Z,3.53
2023-04-13T09:09:11.638Z,5.57
2023-04-13T09:11:38.088Z,6.03
2023-04-13T09:14:04.623Z,5.45
2023-04-13T09:16:37.959Z,4.70
2023-04-13T09:19:04.554Z,7.07
2023-04-13T09:21:40.856Z,5.65
2023-04-13T09:26:42.456Z,4.68
2023-04-13T09:29:13.805Z,5.53
2023-04-13T09:31:41.992Z,4.43
2023-04-13T09:34:10.698Z,6.50
2023-04-13T09:36:49.619Z,4.45
2023-04-13T09:39:26.717Z,5.13
2023-04-13T09:41:54.200Z,3.95
2023-04-13T09:44:22.218Z,4.53
2023-04-13T09:47:01.230Z,4.13
2023-04-13T09:49:40.866Z,3.50
2023-04-13T09:52:17.956Z,4.45
2023-04-13T09:54:46.066Z,4.25
2023-04-13T09:57:22.409Z,4.93
2023-04-13T09:59:48.789Z,4.87
2023-04-13T10:02:16.269Z,3.97
2023-04-13T10:04:42.571Z,5.15
2023-04-13T10:07:10.076Z,5.22
2023-04-13T10:09:36.694Z,3.35
2023-04-13T10:12:04.039Z,4.70
2023-04-13T10:14:36.006Z,4.85
2023-04-13T10:17:05.592Z,3.55
2023-04-13T10:19:35.623Z,3.85
2023-04-13T10:22:04.192Z,5.03
2023-04-13T10:24:30.797Z,3.67
2023-04-13T10:27:00.221Z,4.18
2023-04-13T10:29:27.242Z,4.05
2023-04-13T10:31:57.027Z,3.97
2023-04-13T10:34:27.500Z,5.55
2023-04-13T10:36:56.115Z,5.05
2023-04-13T10:39:26.011Z,4.53
2023-04-13T10:42:02.315Z,3.00
2023-04-13T10:44:39.999Z,2.50
2023-04-13T10:47:08.326Z,5.25
2023-04-13T10:49:34.761Z,5.03
2023-04-13T10:52:01.041Z,4.13
2023-04-13T10:54:28.574Z,4.68
2023-04-13T10:56:58.678Z,3.28
2023-04-13T10:59:57.237Z,4.93
2023-04-13T11:02:26.644Z,3.40
2023-04-13T11:04:53.429Z,4.70
2023-04-13T11:07:22.810Z,5.28
2023-04-13T11:09:50.591Z,3.72
2023-04-13T11:12:20.157Z,4.72
2023-04-13T11:14:47.065Z,3.10
2023-04-13T11:17:14.264Z,3.65
2023-04-13T11:19:53.805Z,4.97
2023-04-13T11:22:23.620Z,3.53
2023-04-13T11:24:51.058Z,4.95
2023-04-13T11:27:24.429Z,4.53
2023-04-13T11:30:00.664Z,5.68
2023-04-13T11:32:27.899Z,5.68
2023-04-13T11:35:04.355Z,3.50
2023-04-13T11:37:35.086Z,3.95
2023-04-13T11:40:09.637Z,6.45
2023-04-13T11:42:40.960Z,4.45
2023-04-13T11:45:08.075Z,8.35
2023-04-13T11:47:36.019Z,4.32
2023-04-13T11:50:03.453Z,5.30
2023-04-13T11:52:30.395Z,4.55
2023-04-13T11:54:56.797Z,4.85
2023-04-13T11:57:24.046Z,4.20
2023-04-13T11:59:53.479Z,5.80
2023-04-13T12:02:30.045Z,4.65
2023-04-13T12:04:59.790Z,4.85
2023-04-13T12:07:26.692Z,4.15
2023-04-13T12:09:56.707Z,5.18
2023-04-13T12:15:12.222Z,6.82
2023-04-13T12:17:49.768Z,4.45
2023-04-13T12:20:20.453Z,3.97
2023-04-13T12:25:17.931Z,4.38
2023-04-13T12:27:44.585Z,4.13
2023-04-13T12:30:14.614Z,3.42
2023-04-13T12:32:42.710Z,4.93
2023-04-13T12:35:09.319Z,5.03
2023-04-13T12:37:42.112Z,5.85
2023-04-13T12:40:14.825Z,4.88
2023-04-13T12:42:47.673Z,5.90
2023-04-13T12:45:15.217Z,4.00
2023-04-13T12:47:41.673Z,5.45
2023-04-13T12:50:09.500Z,4.65
2023-04-13T12:52:37.083Z,4.22
2023-04-13T12:55:03.482Z,5.75
2023-04-13T12:57:30.199Z,5.30
2023-04-13T12:59:56.960Z,4.05
2023-04-13T13:02:24.387Z,6.72
2023-04-13T13:04:51.730Z,4.75
2023-04-13T13:07:18.734Z,4.82
2023-04-13T13:09:45.297Z,3.80
2023-04-13T13:12:12.037Z,5.18
2023-04-13T13:14:38.316Z,4.78
2023-04-13T13:17:04.642Z,4.88
2023-04-13T13:19:31.070Z,4.07
2023-04-13T13:21:58.708Z,3.95
2023-04-13T13:24:25.478Z,4.57
2023-04-13T13:27:19.629Z,6.00
2023-04-13T13:29:38.820Z,5.40
2023-04-13T13:32:05.317Z,7.38
2023-04-13T13:34:31.676Z,5.60
2023-04-13T13:36:57.939Z,5.53
2023-04-13T13:39:24.365Z,4.72
2023-04-13T13:41:50.938Z,6.05
2023-04-13T13:44:17.524Z,5.20
2023-04-13T13:46:43.950Z,5.82
2023-04-13T13:49:11.676Z,7.47
2023-04-13T13:51:37.942Z,5.95
2023-04-13T13:54:04.255Z,4.95
2023-04-13T13:56:30.695Z,5.00
2023-04-13T13:58:57.320Z,8.35
2023-04-13T14:01:23.765Z,4.90
2023-04-13T14:03:50.146Z,4.53
2023-04-13T14:06:16.696Z,7.47
2023-04-13T14:08:43.068Z,6.32
2023-04-13T14:11:10.240Z,6.25
2023-04-13T14:13:36.554Z,6.28
2023-04-13T14:16:03.010Z,5.47
2023-04-13T14:18:29.502Z,4.70
2023-04-13T14:20:57.945Z,5.63
2023-04-13T14:23:24.349Z,4.13
2023-04-13T14:25:50.905Z,4.60
2023-04-13T14:28:18.455Z,6.53
2023-04-13T14:30:45.168Z,5.75
2023-04-13T14:33:14.523Z,6.97
2023-04-13T14:35:40.864Z,6.55
2023-04-13T14:38:08.240Z,5.32
2023-04-13T14:40:34.896Z,4.45
2023-04-13T14:43:02.717Z,5.60
2023-04-13T14:45:29.120Z,7.20
2023-04-13T14:47:56.221Z,12.55
2023-04-13T14:50:22.871Z,7.32
2023-04-13T14:52:50.126Z,6.95
2023-04-13T14:55:17.016Z,6.80
2023-04-13T14:57:43.534Z,5.68
2023-04-13T15:00:21.508Z,8.05
2023-04-13T15:02:49.155Z,4.82
2023-04-13T15:05:16.260Z,4.75
2023-04-13T15:07:44.565Z,7.13
2023-04-13T15:10:10.871Z,8.57
2023-04-13T15:12:37.223Z,4.60
2023-04-13T15:15:03.719Z,6.85
2023-04-13T15:17:30.691Z,6.80
2023-04-13T15:19:57.260Z,7.05
2023-04-13T15:22:23.784Z,7.60
2023-04-13T15:24:50.062Z,5.20
2023-04-13T15:27:16.302Z,4.05
2023-04-13T15:29:42.672Z,6.45
2023-04-13T15:32:09.060Z,5.45
2023-04-13T15:34:35.636Z,4.53
2023-04-13T15:37:01.967Z,4.47
2023-04-13T15:39:28.801Z,4.35
2023-04-13T15:41:55.221Z,5.43
2023-04-13T15:44:21.665Z,7.32
2023-04-13T15:46:48.089Z,7.97
2023-04-13T15:49:14.504Z,5.75
2023-04-13T15:51:40.814Z,5.90
2023-04-13T15:54:07.063Z,6.93
2023-04-13T15:56:33.415Z,4.40
2023-04-13T15:58:59.800Z,7.68
2023-04-13T16:01:27.369Z,6.13
2023-04-13T16:03:54.648Z,3.53
2023-04-13T16:06:21.242Z,7.82
2023-04-13T16:08:48.929Z,6.03
2023-04-13T16:11:15.259Z,5.50
2023-04-13T16:13:49.466Z,7.85
2023-04-13T16:16:17.027Z,10.30
2023-04-13T16:18:43.360Z,6.03
2023-04-13T16:21:10.792Z,3.88
2023-04-13T16:23:37.398Z,8.23
2023-04-13T16:26:04.638Z,4.38
2023-04-13T16:28:34.620Z,6.05
2023-04-13T16:31:08.751Z,6.47
2023-04-13T16:33:35.351Z,4.70
2023-04-13T16:36:02.889Z,3.28
2023-04-13T16:38:50.684Z,4.50
2023-04-13T16:41:17.125Z,6.40
2023-04-13T16:43:47.212Z,4.80
2023-04-13T16:46:16.922Z,5.97
2023-04-13T16:48:43.269Z,5.18
2023-04-13T16:51:09.632Z,6.35
2023-04-13T16:53:38.188Z,3.10
2023-04-13T16:56:11.552Z,4.90
2023-04-13T16:58:37.972Z,4.00
2023-04-13T17:01:04.509Z,5.85
2023-04-13T17:03:31.165Z,5.15
2023-04-13T17:05:57.522Z,5.28
2023-04-13T17:08:23.811Z,6.13
2023-04-13T17:10:51.122Z,5.43
2023-04-13T17:13:18.157Z,5.65
2023-04-13T17:16:03.489Z,8.65
2023-04-13T17:18:29.798Z,5.75
2023-04-13T17:20:56.393Z,7.85
2023-04-13T17:23:24.542Z,6.30
2023-04-13T17:25:54.365Z,5.85
2023-04-13T17:28:21.892Z,4.75
2023-04-13T17:30:48.791Z,5.30
2023-04-13T17:33:15.983Z,4.97
2023-04-13T17:35:42.477Z,7.35
2023-04-13T17:38:17.870Z,6.47
2023-04-13T17:40:45.636Z,6.10
2023-04-13T17:43:12.212Z,8.00
2023-04-13T17:45:40.499Z,8.15
2023-04-13T17:48:07.201Z,15.57
2023-04-13T17:50:33.722Z,5.30
2023-04-13T17:53:06.189Z,7.90
2023-04-13T17:55:35.702Z,7.47
2023-04-13T17:58:02.142Z,12.07
2023-04-13T18:00:29.084Z,7.80
2023-04-13T18:02:55.572Z,7.85
2023-04-13T18:05:22.298Z,7.78
2023-04-13T18:07:48.711Z,8.77
2023-04-13T18:10:15.127Z,14.30
2023-04-13T18:12:41.516Z,14.85
2023-04-13T18:15:08.503Z,6.65
2023-04-13T18:17:35.673Z,11.90
2023-04-13T18:20:02.124Z,11.25
2023-04-13T18:22:28.490Z,11.13
2023-04-13T18:24:54.880Z,8.27
2023-04-13T18:27:23.009Z,8.02
2023-04-13T18:29:49.434Z,9.15
2023-04-13T18:32:17.027Z,6.63
2023-04-13T18:34:44.163Z,7.95
2023-04-13T18:37:11.310Z,6.22
2023-04-13T18:39:38.389Z,9.43
2023-04-13T18:42:04.790Z,7.47
2023-04-13T18:44:31.046Z,7.95
2023-04-13T18:46:57.344Z,7.30
2023-04-13T18:49:23.964Z,8.27
2023-04-13T18:51:50.313Z,10.07
2023-04-13T18:54:16.687Z,4.70
2023-04-13T18:56:43.066Z,7.43
2023-04-13T18:59:09.453Z,10.02
2023-04-13T19:01:36.328Z,7.72
2023-04-13T19:04:03.138Z,7.18
2023-04-13T19:06:29.711Z,7.15
2023-04-13T19:08:56.080Z,5.20
2023-04-13T19:11:24.123Z,8.52
2023-04-13T19:13:50.383Z,5.80
2023-04-13T19:16:16.737Z,6.45
2023-04-13T19:18:43.056Z,8.05
2023-04-13T19:21:09.478Z,4.18
2023-04-13T19:23:37.732Z,5.00
2023-04-13T19:26:06.153Z,6.32
2023-04-13T19:28:32.464Z,7.20
2023-04-13T19:30:58.777Z,4.32
2023-04-13T19:33:25.097Z,6.18
2023-04-13T19:35:52.419Z,5.70
2023-04-13T19:38:18.772Z,4.15
2023-04-13T19:40:45.096Z,7.30
2023-04-13T19:43:11.366Z,4.28
2023-04-13T19:45:39.395Z,5.18
2023-04-13T19:48:06.565Z,5.07
2023-04-13T19:50:32.907Z,3.97
2023-04-13T19:52:59.264Z,5.13
2023-04-13T19:55:26.859Z,7.53
2023-04-13T19:57:53.164Z,6.55
2023-04-13T20:00:20.463Z,5.43
2023-04-13T20:02:49.576Z,6.05
2023-04-13T20:05:17.386Z,6.05
2023-04-13T20:07:43.715Z,4.50
2023-04-13T20:10:11.166Z,6.10
2023-04-13T20:12:37.530Z,4.20
2023-04-13T20:15:04.376Z,5.45
2023-04-13T20:17:30.842Z,5.18
2023-04-13T20:19:57.150Z,5.43
2023-04-13T20:22:23.738Z,4.85
2023-04-13T20:24:50.155Z,5.57
2023-04-13T20:27:16.425Z,4.80
2023-04-13T20:29:42.644Z,5.63
2023-04-13T20:32:08.955Z,4.55
2023-04-13T20:34:35.311Z,4.57
2023-04-13T20:37:02.000Z,6.00
2023-04-13T20:39:29.971Z,4.05
2023-04-13T20:41:57.041Z,5.22
2023-04-13T20:44:23.775Z,5.60
2023-04-13T20:46:54.105Z,3.65
2023-04-13T20:49:24.058Z,4.22
2023-04-13T20:51:53.472Z,3.22
2023-04-13T20:54:20.084Z,4.82
2023-04-13T20:56:47.324Z,3.65
2023-04-13T20:59:14.797Z,4.75
2023-04-13T21:01:41.529Z,4.43
2023-04-13T21:04:08.226Z,4.05
2023-04-13T21:06:37.540Z,4.80
2023-04-13T21:09:05.643Z,3.55
2023-04-13T21:11:31.987Z,4.65
2023-04-13T21:13:58.555Z,4.55
2023-04-13T21:16:28.372Z,4.38
2023-04-13T21:18:54.706Z,4.03
2023-04-13T21:21:23.375Z,3.92
2023-04-13T21:23:52.353Z,4.20
2023-04-13T21:26:18.684Z,4.05
2023-04-13T21:28:44.996Z,3.00
2023-04-13T21:31:11.669Z,4.03
2023-04-13T21:33:38.015Z,4.90
2023-04-13T21:38:40.896Z,4.18
2023-04-13T21:41:17.144Z,4.15
2023-04-13T21:43:43.770Z,5.03
2023-04-13T21:46:11.288Z,4.50
2023-04-13T21:48:37.853Z,2.75
2023-04-13T21:51:07.614Z,3.05
2023-04-13T21:53:37.258Z,4.50
2023-04-13T21:56:03.832Z,3.45
2023-04-13T21:58:39.401Z,4.35
2023-04-13T22:01:07.117Z,3.83
2023-04-13T22:03:37.359Z,3.25
2023-04-13T22:06:04.221Z,4.30
2023-04-13T22:08:31.451Z,3.47
2023-04-13T22:10:57.822Z,3.65
2023-04-13T22:13:24.156Z,3.05
2023-04-13T22:15:50.624Z,3.97
2023-04-13T22:18:16.962Z,2.42
2023-04-13T22:20:44.555Z,4.28
2023-04-13T22:23:11.202Z,4.30
2023-04-13T22:25:37.451Z,3.78
2023-04-13T22:28:04.136Z,3.78
2023-04-13T22:30:30.437Z,3.22
2023-04-13T22:32:57.177Z,4.70
2023-04-13T22:35:24.181Z,3.45
2023-04-13T22:37:50.532Z,3.67
2023-04-13T22:40:17.026Z,2.95
2023-04-13T22:42:43.425Z,3.55
2023-04-13T22:45:09.949Z,3.40
2023-04-13T22:47:36.423Z,3.38
2023-04-13T22:50:03.254Z,3.45
2023-04-13T22:52:29.494Z,4.10
2023-04-13T22:54:56.417Z,3.53
2023-04-13T22:57:22.744Z,2.47
2023-04-13T22:59:49.040Z,5.05
2023-04-13T23:02:15.451Z,4.05
2023-04-13T23:04:41.902Z,2.95
2023-04-13T23:07:08.329Z,3.90
2023-04-13T23:09:34.656Z,3.92
2023-04-13T23:12:01.568Z,3.58
2023-04-13T23:14:27.992Z,2.58
2023-04-13T23:16:54.214Z,4.15
2023-04-13T23:19:20.584Z,3.38
2023-04-13T23:21:46.931Z,2.53
2023-04-13T23:24:13.410Z,3.10
2023-04-13T23:26:39.739Z,3.40
2023-04-13T23:29:06.225Z,4.63
2023-04-13T23:31:32.591Z,4.97
2023-04-13T23:33:58.950Z,2.95
2023-04-13T23:36:26.302Z,3.25
2023-04-13T23:38:52.597Z,4.20
2023-04-13T23:41:18.885Z,4.78
2023-04-13T23:43:45.121Z,4.85
2023-04-13T23:46:13.095Z,4.03
2023-04-13T23:48:39.469Z,3.63
2023-04-13T23:51:05.754Z,3.10
2023-04-13T23:53:32.125Z,3.67
2023-04-13T23:55:58.429Z,3.10
2023-04-13T23:58:24.695Z,3.58
